This is the latest recevied weather packets stored in our database for station/object KB4JHU-15. If no packets are shown the sender has not sent any weather packets the latest 10 day(s).
| Time | Temp. | Humidity | Pressure | Rain* | Wind** | Luminosity | Snow |
|---|---|---|---|---|---|---|---|
| 1778173701 | 17.78° C | 57% | - | 0 mm | - | - | - |
| 1778171900 | 17.22° C | 59% | - | 0 mm | - | - | - |
| 1778170099 | 16.11° C | 66% | - | 0 mm | - | - | - |
| 1778168298 | 15.56° C | 69% | - | 0 mm | - | - | - |
| 1778166497 | 15° C | 74% | - | 0 mm | - | - | - |
| 1778164696 | 13.89° C | 81% | - | 0 mm | - | - | - |
| 1778162895 | 12.78° C | 87% | - | 0 mm | - | - | - |
| 1778161094 | 12.78° C | 90% | - | 0 mm | - | - | - |
| 1778159293 | 12.22° C | 92% | - | 0 mm | - | - | - |
| 1778157492 | 12.22° C | 92% | - | 0 mm | - | - | - |
| 1778155691 | 12.78° C | 94% | - | 0 mm | - | - | - |
| 1778153890 | 12.22° C | 95% | - | 0 mm | - | - | - |
| 1778152089 | 12.22° C | 96% | - | 0 mm | - | - | - |
| 1778150288 | 12.22° C | 96% | - | 0 mm | - | - | - |
| 1778148487 | 12.22° C | 96% | - | 0.25 mm | - | - | - |
| 1778146686 | 12.22° C | 96% | - | 0.25 mm | - | - | - |
| 1778144885 | 12.22° C | 96% | - | 0 mm | - | - | - |
| 1778143084 | 12.22° C | 96% | - | 0.51 mm | - | - | - |
| 1778141283 | 12.78° C | 96% | - | 0.76 mm | - | - | - |
| 1778139482 | 12.78° C | 96% | - | 0.51 mm | - | - | - |
| 1778137681 | 13.33° C | 96% | - | 0.51 mm | - | - | - |
| 1778135880 | 12.78° C | 96% | - | 0.25 mm | - | - | - |
| 1778134079 | 13.33° C | 96% | - | 0 mm | - | - | - |
| 1778132278 | 12.78° C | 96% | - | 0 mm | - | - | - |
| 1778130477 | 12.78° C | 96% | - | 0 mm | - | - | - |
* Rain latest hour (hover to see other rain measurements)
** Current wind speed in m/s (hover to see current wind gust speed)